Time;durP1;ratioP1;P1;durP2;ratioP2;P2;SDS_P1;SDS_P2;PMS_P1;PMS_P2;Temp;Humidity;BMP_temperature;BMP_pressure;BME280_temperature;BME280_humidity;BME280_pressure;Samples;Min_cycle;Max_cycle;Signal;HPM_P1;HPM_P2
2023/07/30 00:02:09;;;;;;;4.07;2.00;;;;;;;-143.84;89.57;45098.56;4989974;28;20449;-54
2023/07/30 00:04:36;;;;;;;2.37;2.20;;;;;;;-143.84;89.38;45071.91;4989876;28;21165;-54
2023/07/30 00:07:03;;;;;;;2.60;2.23;;;;;;;-143.84;89.64;45068.13;4989843;28;20559;-54
2023/07/30 00:09:32;;;;;;;2.27;2.07;;;;;;;-143.84;89.87;45071.91;4989874;28;20448;-54
2023/07/30 00:11:59;;;;;;;2.07;1.90;;;;;;;-143.84;89.86;45079.53;4989980;28;20453;-54
2023/07/30 00:14:26;;;;;;;3.00;2.27;;;;;;;-143.84;89.94;45104.28;4989610;28;20543;-54
2023/07/30 00:16:53;;;;;;;2.20;2.10;;;;;;;-143.84;89.55;45085.25;4989664;28;20505;-54
2023/07/30 00:19:20;;;;;;;4.67;3.80;;;;;;;-143.84;89.81;45087.16;4989721;28;20441;-54
2023/07/30 00:21:47;;;;;;;2.10;1.83;;;;;;;-143.84;89.84;45083.34;4989582;28;20935;-54
2023/07/30 00:24:14;;;;;;;2.37;2.17;;;;;;;-143.84;89.70;45068.13;4989624;28;20428;-54
2023/07/30 00:26:43;;;;;;;2.93;2.43;;;;;;;-143.84;90.01;45062.41;4989517;28;20511;-54
2023/07/30 00:29:10;;;;;;;4.30;2.23;;;;;;;-143.84;89.73;45098.56;4989550;28;20445;-54
2023/07/30 00:31:37;;;;;;;2.57;2.20;;;;;;;-143.84;89.76;45111.91;4989540;28;20496;-54
2023/07/30 00:34:04;;;;;;;3.10;2.80;;;;;;;-143.84;89.70;45098.56;4989270;28;20547;-54
2023/07/30 00:36:31;;;;;;;2.87;2.63;;;;;;;-143.84;89.57;45079.53;4989476;28;20444;-54
2023/07/30 00:38:58;;;;;;;3.40;2.27;;;;;;;-143.84;89.44;45090.97;4989508;28;21009;-54
2023/07/30 00:41:25;;;;;;;3.40;2.57;;;;;;;-143.84;89.58;45073.81;4989705;28;20445;-54
2023/07/30 00:43:54;;;;;;;4.80;2.80;;;;;;;-143.84;89.50;45117.63;4988759;28;20445;-54
2023/07/30 00:46:21;;;;;;;15.63;2.97;;;;;;;-143.84;88.94;45123.34;4988844;28;20441;-54
2023/07/30 00:48:50;;;;;;;2.80;2.30;;;;;;;-143.84;88.77;45087.16;4988739;28;20449;-54
2023/07/30 00:51:18;;;;;;;7.33;2.30;;;;;;;-143.84;88.67;45075.72;4989266;28;20449;-54
2023/07/30 00:53:45;;;;;;;2.97;2.67;;;;;;;-143.84;88.56;45066.22;4989453;28;20551;-54
2023/07/30 00:56:13;;;;;;;2.33;2.20;;;;;;;-143.84;88.70;45077.63;4989168;28;20445;-54
2023/07/30 00:58:41;;;;;;;2.17;2.07;;;;;;;-143.84;88.43;45079.53;4989295;28;20954;-54
2023/07/30 01:01:10;;;;;;;3.67;2.20;;;;;;;-143.84;88.42;45102.38;4989281;28;20528;-54
2023/07/30 01:03:38;;;;;;;3.37;2.53;;;;;;;-143.84;88.30;45073.81;4989090;28;20448;-54
2023/07/30 01:06:06;;;;;;;2.83;2.30;;;;;;;-143.84;88.44;45092.88;4989008;28;21006;-54
2023/07/30 01:08:33;;;;;;;2.80;2.60;;;;;;;-143.84;88.51;45100.47;4990183;28;20480;-54
2023/07/30 01:11:00;;;;;;;2.87;2.50;;;;;;;-143.84;88.72;45098.56;4992654;28;20507;-54
2023/07/30 01:13:28;;;;;;;2.40;2.30;;;;;;;-143.84;88.89;45098.56;4992692;28;20440;-54
2023/07/30 01:15:55;;;;;;;5.20;2.70;;;;;;;-143.84;88.90;45110.00;4992883;28;20441;-54
2023/07/30 01:18:24;;;;;;;2.93;2.43;;;;;;;-143.84;89.21;45083.34;4992796;28;20943;-54
2023/07/30 01:20:58;;;;;;;2.83;2.63;;;;;;;-143.84;89.33;45096.66;4992551;28;20445;-54
2023/07/30 01:23:25;;;;;;;8.00;2.80;;;;;;;-143.84;89.07;45071.91;4992555;28;20531;-54
2023/07/30 01:26:02;;;;;;;3.13;2.93;;;;;;;-143.84;88.91;45108.09;4992422;28;21233;-54
2023/07/30 01:28:30;;;;;;;2.80;2.10;;;;;;;-143.84;88.93;45092.88;4992474;28;20445;-54
2023/07/30 01:31:01;;;;;;;7.70;2.30;;;;;;;-143.84;88.93;45100.47;4992729;28;21500;-55
2023/07/30 01:33:28;;;;;;;2.70;2.50;;;;;;;-143.84;88.86;45087.16;4992344;28;20441;-54
2023/07/30 01:35:58;;;;;;;3.10;2.80;;;;;;;-143.84;89.02;45113.81;4992432;28;20458;-54
2023/07/30 01:38:27;;;;;;;3.00;2.80;;;;;;;-143.84;89.40;45092.88;4992483;28;20449;-54
2023/07/30 01:40:54;;;;;;;3.23;2.20;;;;;;;-143.84;89.21;45094.78;4992082;28;20457;-54
2023/07/30 01:43:21;;;;;;;4.13;2.60;;;;;;;-143.84;89.24;45085.25;4992160;28;21006;-54
2023/07/30 01:45:48;;;;;;;3.50;2.43;;;;;;;-143.84;89.56;45094.78;4992289;28;20867;-54
2023/07/30 01:48:15;;;;;;;3.03;2.70;;;;;;;-143.84;89.41;45092.88;4992288;28;20440;-54
2023/07/30 01:50:43;;;;;;;2.47;2.27;;;;;;;-143.84;89.64;45073.81;4992278;28;20495;-54
2023/07/30 01:53:11;;;;;;;2.80;2.60;;;;;;;-143.84;89.89;45070.00;4992113;28;20812;-54
2023/07/30 01:55:43;;;;;;;5.27;2.33;;;;;;;-143.84;89.71;45098.56;4990923;28;20525;-54
2023/07/30 01:58:10;;;;;;;2.47;2.27;;;;;;;-143.84;89.78;45100.47;4991525;28;20868;-54
2023/07/30 02:00:37;;;;;;;8.17;2.60;;;;;;;-143.84;89.51;45090.97;4991305;28;20485;-54
2023/07/30 02:03:04;;;;;;;3.90;2.50;;;;;;;-143.84;89.56;45094.78;4991878;28;20943;-54
2023/07/30 02:05:31;;;;;;;7.97;2.37;;;;;;;-143.84;88.98;45075.72;4991708;28;20923;-54
2023/07/30 02:07:59;;;;;;;5.77;2.70;;;;;;;-143.84;88.68;45092.88;4991693;28;20860;-54
2023/07/30 02:10:28;;;;;;;3.07;2.60;;;;;;;-143.84;88.66;45092.88;4991555;28;20442;-54
2023/07/30 02:12:55;;;;;;;2.50;2.30;;;;;;;-143.84;88.37;45098.56;4991817;28;20508;-54
2023/07/30 02:15:22;;;;;;;2.30;2.10;;;;;;;-143.84;88.32;45056.69;4991840;28;20551;-54
2023/07/30 02:17:49;;;;;;;5.10;2.43;;;;;;;-143.84;88.26;45068.13;4991728;28;20449;-54
2023/07/30 02:20:16;;;;;;;6.00;2.50;;;;;;;-143.84;87.57;45090.97;4991150;28;20441;-54
2023/07/30 02:22:43;;;;;;;3.73;2.53;;;;;;;-143.84;87.20;45079.53;4991505;28;20445;-54
2023/07/30 02:25:10;;;;;;;2.17;1.90;;;;;;;-143.84;86.86;45094.78;4991446;28;20511;-54
2023/07/30 02:27:39;;;;;;;3.77;2.20;;;;;;;-143.84;86.52;45106.19;4991325;28;20507;-54
2023/07/30 02:30:07;;;;;;;4.43;3.50;;;;;;;-143.84;86.71;45070.00;4991313;28;20458;-54
2023/07/30 02:32:34;;;;;;;3.10;2.77;;;;;;;-143.84;86.49;45115.72;4991267;28;20437;-54
2023/07/30 02:35:01;;;;;;;2.13;2.00;;;;;;;-143.84;86.43;45083.34;4991140;28;20563;-54
2023/07/30 02:37:28;;;;;;;2.37;2.10;;;;;;;-143.84;86.61;45092.88;4991086;28;20931;-54
2023/07/30 02:39:55;;;;;;;4.90;2.97;;;;;;;-143.84;86.41;45102.38;4991441;28;20504;-54
2023/07/30 02:42:23;;;;;;;3.30;2.00;;;;;;;-143.84;86.39;45083.34;4991321;28;20997;-54
2023/07/30 02:44:51;;;;;;;3.27;2.53;;;;;;;-143.84;86.28;45077.63;4991253;28;21118;-54
2023/07/30 02:47:18;;;;;;;1.97;1.87;;;;;;;-143.84;86.23;45089.06;4990925;28;20457;-54
2023/07/30 02:49:45;;;;;;;4.60;1.90;;;;;;;-143.84;86.03;45089.06;4990930;28;20535;-54
2023/07/30 02:52:12;;;;;;;2.10;1.90;;;;;;;-143.84;86.43;45094.78;4990851;28;20496;-54
2023/07/30 02:54:39;;;;;;;2.53;2.33;;;;;;;-143.84;86.43;45094.78;4991127;28;20517;-54
2023/07/30 02:57:07;;;;;;;8.50;2.47;;;;;;;-143.84;86.05;45087.16;4991086;28;20500;-54
2023/07/30 02:59:35;;;;;;;2.47;2.27;;;;;;;-143.84;86.20;45077.63;4990771;28;20457;-54
2023/07/30 03:02:05;;;;;;;3.73;2.00;;;;;;;-143.84;85.90;45098.56;4990784;28;20449;-54
2023/07/30 03:04:33;;;;;;;2.93;2.10;;;;;;;-143.84;86.20;45089.06;4990654;28;20449;-54
2023/07/30 03:07:00;;;;;;;4.10;2.23;;;;;;;-143.84;86.26;45121.44;4989488;28;20492;-54
2023/07/30 03:09:28;;;;;;;3.57;1.97;;;;;;;-143.84;86.12;45083.34;4990266;28;20445;-54
2023/07/30 03:11:55;;;;;;;4.10;2.50;;;;;;;-143.84;86.25;45073.81;4990328;28;20456;-54
2023/07/30 03:14:23;;;;;;;3.50;1.80;;;;;;;-143.84;86.25;45094.78;4990430;28;20484;-54
2023/07/30 03:16:50;;;;;;;2.60;2.40;;;;;;;-143.84;86.14;45083.34;4990426;28;20453;-54
2023/07/30 03:19:19;;;;;;;2.40;2.30;;;;;;;-143.84;86.51;45073.81;4990453;28;21025;-54
2023/07/30 03:21:46;;;;;;;2.40;2.20;;;;;;;-143.84;86.15;45094.78;4990481;28;20449;-54
2023/07/30 03:24:13;;;;;;;1.87;1.73;;;;;;;-143.84;86.03;45083.34;4990105;28;20503;-55
2023/07/30 03:26:40;;;;;;;2.30;2.20;;;;;;;-143.84;85.94;45106.19;4990364;28;20441;-55
2023/07/30 03:29:07;;;;;;;7.50;2.70;;;;;;;-143.84;85.77;45108.09;4990471;28;21037;-55
2023/07/30 03:31:34;;;;;;;4.03;2.20;;;;;;;-143.84;85.66;45083.34;4989587;28;20438;-55
2023/07/30 03:34:01;;;;;;;2.70;2.50;;;;;;;-143.84;84.15;45089.06;4990164;28;20445;-55
2023/07/30 03:36:29;;;;;;;4.37;2.07;;;;;;;-143.84;82.37;45092.88;4990071;28;20445;-56
2023/07/30 03:38:57;;;;;;;6.90;2.10;;;;;;;-143.84;79.42;45081.44;4990220;28;20496;-56
2023/07/30 03:41:24;;;;;;;4.00;2.37;;;;;;;-143.84;78.32;45079.53;4990003;28;20445;-55
2023/07/30 03:43:51;;;;;;;2.60;2.40;;;;;;;-143.84;77.29;45054.78;4990002;28;20523;-55
2023/07/30 03:46:18;;;;;;;4.73;2.40;;;;;;;-143.84;75.64;45083.34;4990174;28;20895;-59
2023/07/30 03:48:45;;;;;;;7.00;2.80;;;;;;;-143.84;73.22;45085.25;4990213;28;20439;-58
2023/07/30 03:51:12;;;;;;;5.40;3.73;;;;;;;-143.84;70.36;45058.59;4989832;28;20454;-58
2023/07/30 03:53:42;;;;;;;4.90;1.93;;;;;;;-143.84;65.65;45045.25;4990346;28;20436;-58
2023/07/30 03:56:09;;;;;;;16.13;1.73;;;;;;;-143.84;61.17;45010.97;4989911;28;20495;-58
2023/07/30 03:58:36;;;;;;;3.83;1.93;;;;;;;-143.84;58.16;45024.31;4989962;28;20443;-58
2023/07/30 04:01:04;;;;;;;5.47;1.87;;;;;;;-143.84;57.14;45026.22;4990384;28;20444;-58
2023/07/30 04:03:31;;;;;;;2.50;1.53;;;;;;;-143.84;55.32;45007.19;4990316;28;20498;-58
2023/07/30 04:05:58;;;;;;;5.13;1.40;;;;;;;-143.84;53.72;45018.59;4989541;28;20480;-59
2023/07/30 04:08:25;;;;;;;3.50;1.50;;;;;;;-143.84;53.41;45005.28;4990030;28;20453;-58
2023/07/30 04:10:53;;;;;;;1.90;1.47;;;;;;;-143.84;52.70;45003.38;4989815;28;20951;-58
2023/07/30 04:13:20;;;;;;;2.37;1.70;;;;;;;-143.84;51.67;45010.97;4989794;28;21359;-58
2023/07/30 04:15:49;;;;;;;1.63;1.53;;;;;;;-143.84;51.50;44993.84;4989580;28;20989;-58
2023/07/30 04:18:16;;;;;;;1.60;1.50;;;;;;;-143.84;50.55;45007.19;4989928;28;20453;-58
2023/07/30 04:20:43;;;;;;;2.13;1.30;;;;;;;-143.84;50.08;44988.13;4989516;28;20444;-59
2023/07/30 04:23:10;;;;;;;3.57;1.30;;;;;;;-143.84;49.52;44961.47;4988967;28;20553;-58
2023/07/30 04:25:37;;;;;;;2.10;1.20;;;;;;;-143.84;49.22;44967.19;4989054;28;20476;-59
2023/07/30 04:28:05;;;;;;;4.50;1.50;;;;;;;-143.84;48.83;45001.47;4988908;28;20439;-59
2023/07/30 04:30:33;;;;;;;3.87;2.10;;;;;;;-143.84;48.51;44972.91;4989656;28;21234;-58
2023/07/30 04:33:00;;;;;;;2.30;1.50;;;;;;;-143.84;49.08;44982.41;4989669;28;20448;-58
2023/07/30 04:35:27;;;;;;;1.60;1.47;;;;;;;-143.84;48.33;44984.31;4989731;28;20545;-58
2023/07/30 04:37:54;;;;;;;3.70;1.63;;;;;;;-143.84;48.42;44982.41;4989697;28;20506;-58
2023/07/30 04:40:21;;;;;;;3.70;1.30;;;;;;;-143.84;47.69;44980.53;4989452;28;20468;-58
2023/07/30 04:42:48;;;;;;;4.50;1.70;;;;;;;-143.84;48.06;44974.81;4989867;28;20452;-58
2023/07/30 04:45:17;;;;;;;2.80;1.73;;;;;;;-143.84;47.71;44974.81;4993674;28;20950;-58
2023/07/30 04:47:44;;;;;;;4.10;1.73;;;;;;;-143.84;46.80;44976.72;4993769;28;20440;-58
2023/07/30 04:50:11;;;;;;;3.67;1.40;;;;;;;-143.84;46.65;44953.88;4993773;28;20440;-58
2023/07/30 04:52:39;;;;;;;1.20;1.10;;;;;;;-143.84;46.41;44980.53;4993682;28;20499;-58
2023/07/30 04:55:07;;;;;;;8.37;1.57;;;;;;;-143.84;46.41;44971.00;4993428;28;20523;-58
2023/07/30 04:57:34;;;;;;;1.80;1.67;;;;;;;-143.84;46.35;44972.91;4993948;28;20440;-58
2023/07/30 05:00:01;;;;;;;4.40;1.60;;;;;;;-143.84;46.01;44971.00;4993549;28;20444;-58
2023/07/30 05:02:31;;;;;;;3.17;1.23;;;;;;;-143.84;45.62;44984.31;4993360;28;20514;-58
2023/07/30 05:04:58;;;;;;;1.63;1.53;;;;;;;-143.84;45.57;44967.19;4993210;28;20460;-58
2023/07/30 05:07:25;;;;;;;5.93;1.60;;;;;;;-143.84;45.24;44969.09;4993113;28;20473;-55
2023/07/30 05:09:52;;;;;;;1.70;1.60;;;;;;;-143.84;45.93;44986.22;4993080;28;21005;-58
2023/07/30 05:12:19;;;;;;;7.37;1.90;;;;;;;-143.84;45.74;44982.41;4993216;28;20439;-58
2023/07/30 05:14:46;;;;;;;2.70;1.83;;;;;;;-143.84;46.09;44967.19;4993384;28;20436;-58
2023/07/30 05:17:13;;;;;;;3.10;2.80;;;;;;;-143.84;45.73;44967.19;4993178;28;20505;-58
2023/07/30 05:19:42;;;;;;;1.80;1.33;;;;;;;-143.84;46.25;44978.63;4993151;28;20506;-58
2023/07/30 05:22:09;;;;;;;3.10;1.67;;;;;;;-143.84;46.72;44976.72;4993478;28;21148;-58
2023/07/30 05:24:36;;;;;;;4.07;1.30;;;;;;;-143.84;46.76;44990.03;4993084;28;20953;-58
2023/07/30 05:27:04;;;;;;;2.23;1.57;;;;;;;-143.84;46.00;44976.72;4993232;28;20470;-58
2023/07/30 05:29:31;;;;;;;4.20;1.70;;;;;;;-143.84;47.20;44969.09;4993432;28;20496;-58
2023/07/30 05:31:58;;;;;;;2.53;1.57;;;;;;;-143.84;46.16;44961.47;4992701;28;20452;-58
2023/07/30 05:34:25;;;;;;;1.97;1.53;;;;;;;-143.84;45.66;44972.91;4993155;28;20575;-58
2023/07/30 05:36:53;;;;;;;1.40;1.30;;;;;;;-143.84;45.27;44978.63;4992895;28;21005;-58
2023/07/30 05:39:20;;;;;;;1.47;1.10;;;;;;;-143.84;45.78;44963.38;4992985;28;20878;-58
2023/07/30 05:41:48;;;;;;;1.90;1.70;;;;;;;-143.84;47.19;44972.91;4992823;28;20506;-58
2023/07/30 05:44:15;;;;;;;3.83;1.57;;;;;;;-143.84;46.26;44980.53;4992912;28;20445;-58
2023/07/30 05:46:42;;;;;;;7.93;1.67;;;;;;;-143.84;46.14;44953.88;4992441;28;20453;-58
2023/07/30 05:49:09;;;;;;;1.73;1.37;;;;;;;-143.84;45.53;44957.66;4991274;28;20506;-58
2023/07/30 05:51:36;;;;;;;6.60;1.80;;;;;;;-143.84;45.41;44963.38;4992389;28;20429;-58
2023/07/30 05:54:05;;;;;;;5.77;1.93;;;;;;;-143.84;44.63;44959.56;4991847;28;20452;-58
2023/07/30 05:56:32;;;;;;;1.50;1.40;;;;;;;-143.84;44.92;44950.06;4991599;28;20582;-58
2023/07/30 05:58:59;;;;;;;2.00;1.47;;;;;;;-143.84;44.87;44972.91;4992596;28;20448;-57
2023/07/30 06:01:26;;;;;;;2.97;1.37;;;;;;;-143.84;45.42;44951.97;4992287;28;20445;-58
2023/07/30 06:03:53;;;;;;;3.87;1.37;;;;;;;-143.84;45.32;44965.28;4992309;28;20443;-58
2023/07/30 06:06:26;;;;;;;2.37;1.40;;;;;;;-143.84;45.15;44965.28;4991942;28;20934;-58
2023/07/30 06:08:54;;;;;;;6.30;1.40;;;;;;;-143.84;45.27;44982.41;4992360;28;20460;-58
2023/07/30 06:11:23;;;;;;;2.73;1.43;;;;;;;-143.84;45.15;44963.38;4992145;28;20453;-50
2023/07/30 06:13:50;;;;;;;1.50;1.40;;;;;;;-143.84;44.73;44963.38;4992127;28;20449;-49
2023/07/30 06:16:20;;;;;;;1.43;1.33;;;;;;;-143.84;44.10;44932.91;4991456;28;20518;-49
2023/07/30 06:18:47;;;;;;;1.60;1.50;;;;;;;-143.84;44.17;44955.75;4991804;28;20536;-49
2023/07/30 06:21:14;;;;;;;4.17;1.20;;;;;;;-143.84;44.71;44972.91;4991885;28;21020;-50
2023/07/30 06:23:41;;;;;;;4.07;1.50;;;;;;;-143.84;44.97;44969.09;4991386;28;20452;-49
2023/07/30 06:26:08;;;;;;;3.20;1.47;;;;;;;-143.84;45.57;44969.09;4991482;28;20452;-49
2023/07/30 06:28:37;;;;;;;1.47;1.20;;;;;;;-143.84;44.57;44959.56;4991678;28;20511;-50
2023/07/30 06:31:04;;;;;;;2.10;1.60;;;;;;;-143.84;44.47;44965.28;4991411;28;20455;-49
2023/07/30 06:33:31;;;;;;;2.30;1.40;;;;;;;-143.84;45.10;44965.28;4991456;28;20977;-49
2023/07/30 06:35:59;;;;;;;4.03;1.40;;;;;;;-143.84;45.81;44957.66;4991365;28;20488;-49
2023/07/30 06:38:26;;;;;;;3.83;1.30;;;;;;;-143.84;45.22;44978.63;4991666;28;20440;-50
2023/07/30 06:40:53;;;;;;;3.63;1.43;;;;;;;-143.84;45.18;44967.19;4991518;28;20471;-48
2023/07/30 06:43:20;;;;;;;1.80;1.60;;;;;;;-143.84;44.01;44965.28;4991645;28;20771;-49
2023/07/30 06:45:49;;;;;;;2.10;1.60;;;;;;;-143.84;44.32;44946.25;4991276;28;20441;-49
2023/07/30 06:48:16;;;;;;;3.47;1.37;;;;;;;-143.84;44.44;44942.44;4991438;28;20453;-49
2023/07/30 06:50:43;;;;;;;2.77;1.63;;;;;;;-143.84;43.61;44957.66;4991314;28;20441;-49
2023/07/30 06:53:10;;;;;;;5.10;1.53;;;;;;;-143.84;44.29;44946.25;4991173;28;20453;-49
2023/07/30 06:55:37;;;;;;;3.23;1.93;;;;;;;-143.84;44.21;44974.81;4990926;28;20476;-49
2023/07/30 06:58:05;;;;;;;4.33;1.33;;;;;;;-143.84;45.04;44972.91;4991077;28;20460;-57
2023/07/30 07:00:32;;;;;;;1.57;1.37;;;;;;;-143.84;45.22;44967.19;4991321;28;20442;-50
2023/07/30 07:03:00;;;;;;;5.20;1.43;;;;;;;-143.84;44.85;44953.88;4990942;28;20453;-49
2023/07/30 07:05:27;;;;;;;3.30;1.10;;;;;;;-143.84;47.08;44963.38;4990535;28;20499;-49
2023/07/30 07:07:55;;;;;;;1.40;1.30;;;;;;;-143.84;44.89;44955.75;4990829;28;20456;-49
2023/07/30 07:10:22;;;;;;;2.00;1.80;;;;;;;-143.84;46.06;44950.06;4990760;28;21342;-54
2023/07/30 07:12:49;;;;;;;4.37;1.30;;;;;;;-143.84;46.33;44959.56;4990448;28;20511;-54
2023/07/30 07:15:16;;;;;;;3.67;1.30;;;;;;;-143.84;46.54;44984.31;4989675;28;20475;-54
2023/07/30 07:17:43;;;;;;;2.03;1.47;;;;;;;-143.84;46.59;44980.53;4990080;28;20447;-55
2023/07/30 07:20:12;;;;;;;1.37;1.27;;;;;;;-143.84;45.94;44972.91;4989815;28;20444;-54
2023/07/30 07:22:39;;;;;;;1.50;1.30;;;;;;;-143.84;45.50;44974.81;4990270;28;20799;-55
2023/07/30 07:25:07;;;;;;;2.47;1.57;;;;;;;-143.84;47.01;44959.56;4990305;28;20451;-54
2023/07/30 07:27:34;;;;;;;3.10;1.47;;;;;;;-143.84;46.16;44982.41;4990402;28;20870;-55
2023/07/30 07:30:01;;;;;;;7.33;1.50;;;;;;;-143.84;46.22;44990.03;4990214;28;20441;-54
2023/07/30 07:32:28;;;;;;;4.60;1.20;;;;;;;-143.84;46.66;44961.47;4990327;28;20433;-55
2023/07/30 07:34:55;;;;;;;1.60;1.50;;;;;;;-143.84;46.05;44984.31;4990092;28;20456;-54
2023/07/30 07:37:24;;;;;;;1.10;1.00;;;;;;;-143.84;47.36;44976.72;4990167;28;21057;-54
2023/07/30 07:39:51;;;;;;;3.07;1.53;;;;;;;-143.84;47.80;44948.16;4990098;28;20444;-55
2023/07/30 07:42:18;;;;;;;6.30;1.37;;;;;;;-143.84;48.08;44986.22;4989967;28;20822;-55
2023/07/30 07:44:46;;;;;;;2.43;1.20;;;;;;;-143.84;48.79;44967.19;4990237;28;20517;-54
2023/07/30 07:47:13;;;;;;;1.77;1.43;;;;;;;-143.84;46.92;44948.16;4989823;28;20536;-54
2023/07/30 07:49:40;;;;;;;4.70;1.30;;;;;;;-143.84;46.73;44963.38;4990000;28;21013;-54
2023/07/30 07:52:08;;;;;;;2.37;1.50;;;;;;;-143.84;46.31;44976.72;4990289;28;20486;-55
2023/07/30 07:54:36;;;;;;;1.40;1.30;;;;;;;-143.84;46.40;44961.47;4990117;28;20819;-54
2023/07/30 07:57:04;;;;;;;1.73;1.30;;;;;;;-143.84;47.54;44984.31;4989533;28;20490;-54
2023/07/30 07:59:31;;;;;;;1.97;1.10;;;;;;;-143.84;46.83;44988.13;4989909;28;20451;-55
2023/07/30 08:01:58;;;;;;;3.70;1.17;;;;;;;-143.84;47.83;44959.56;4989875;28;20448;-54
2023/07/30 08:04:25;;;;;;;1.80;1.27;;;;;;;-143.84;47.15;44976.72;4989805;28;20452;-55
2023/07/30 08:06:53;;;;;;;2.50;1.80;;;;;;;-143.84;46.86;44955.75;4989403;28;20483;-55
2023/07/30 08:09:20;;;;;;;2.30;1.30;;;;;;;-143.84;49.73;44986.22;4989726;28;20445;-54
2023/07/30 08:11:48;;;;;;;2.37;1.20;;;;;;;-143.84;46.99;44991.94;4989709;28;20445;-55
2023/07/30 08:14:15;;;;;;;1.90;1.13;;;;;;;-143.84;48.26;44988.13;4990054;28;20440;-55
2023/07/30 08:16:43;;;;;;;5.47;1.40;;;;;;;-143.84;47.77;44980.53;4989929;28;20492;-50
2023/07/30 08:19:10;;;;;;;1.87;1.20;;;;;;;-143.84;48.67;44965.28;4989557;28;20445;-50
2023/07/30 08:21:38;;;;;;;2.23;1.30;;;;;;;-143.84;49.17;44961.47;4990022;28;20976;-50
2023/07/30 08:24:06;;;;;;;9.20;1.97;;;;;;;-143.84;47.94;44980.53;4989605;28;20445;-49
2023/07/30 08:26:33;;;;;;;2.47;1.50;;;;;;;-143.84;48.46;44971.00;4989556;28;20493;-50
2023/07/30 08:29:03;;;;;;;1.50;1.40;;;;;;;-143.84;51.05;44976.72;4989625;28;20437;-48
2023/07/30 08:31:30;;;;;;;1.93;1.57;;;;;;;-143.84;51.25;44974.81;4989602;28;20954;-49
2023/07/30 08:33:57;;;;;;;3.97;1.77;;;;;;;-143.84;51.86;44978.63;4989418;28;20452;-49
2023/07/30 08:36:24;;;;;;;3.00;1.60;;;;;;;-143.84;51.13;44955.75;4989618;28;21374;-49
2023/07/30 08:38:51;;;;;;;1.80;1.37;;;;;;;-143.84;50.23;44961.47;4989639;28;20457;-50
2023/07/30 08:41:18;;;;;;;1.63;1.40;;;;;;;-143.84;50.28;44976.72;4989140;28;20452;-49
2023/07/30 08:43:48;;;;;;;3.20;1.50;;;;;;;-143.84;49.50;44971.00;4989269;28;21017;-49
2023/07/30 08:46:17;;;;;;;2.23;1.50;;;;;;;-143.84;51.60;44974.81;4989448;28;20448;-49
2023/07/30 08:48:44;;;;;;;5.53;1.57;;;;;;;-143.84;50.65;44955.75;4988865;28;20824;-50
2023/07/30 08:51:13;;;;;;;6.33;1.50;;;;;;;-143.84;51.38;44972.91;4989388;28;20445;-49
2023/07/30 08:53:42;;;;;;;4.07;1.77;;;;;;;-143.84;51.55;44976.72;4989464;28;20511;-49
2023/07/30 08:56:10;;;;;;;3.03;1.60;;;;;;;-143.84;51.04;44978.63;4989019;28;20495;-49
2023/07/30 08:58:38;;;;;;;11.87;2.07;;;;;;;-143.84;52.75;44971.00;4989271;28;20449;-49
2023/07/30 09:01:10;;;;;;;2.27;1.40;;;;;;;-143.84;52.26;44959.56;4989520;28;21014;-49
2023/07/30 09:03:40;;;;;;;2.47;1.17;;;;;;;-143.84;51.30;44963.38;4989380;28;20445;-54
2023/07/30 09:06:08;;;;;;;3.70;1.73;;;;;;;-143.84;53.39;44951.97;4988930;28;20855;-54
2023/07/30 09:08:35;;;;;;;1.83;1.73;;;;;;;-143.84;55.29;45010.97;4989167;28;20448;-54
2023/07/30 09:11:08;;;;;;;2.73;2.10;;;;;;;-143.84;56.88;44980.53;4988890;28;20451;-57
2023/07/30 09:13:39;;;;;;;3.73;1.60;;;;;;;-143.84;59.47;44969.09;4989374;28;20543;-57
2023/07/30 09:16:11;;;;;;;1.53;1.43;;;;;;;-143.84;56.34;44972.91;4989488;28;20443;-57
2023/07/30 09:18:43;;;;;;;1.43;1.33;;;;;;;-143.84;55.89;44959.56;4989422;28;20931;-57
2023/07/30 09:21:12;;;;;;;1.60;1.50;;;;;;;-143.84;56.78;44965.28;4989495;28;20530;-57
2023/07/30 09:23:43;;;;;;;6.90;1.50;;;;;;;-143.84;56.34;44953.88;4989203;28;20447;-57
2023/07/30 09:26:10;;;;;;;7.40;1.77;;;;;;;-143.84;56.77;44969.09;4989658;28;20500;-57
2023/07/30 09:28:38;;;;;;;1.63;1.53;;;;;;;-143.84;58.53;44997.66;4989579;28;20809;-57
2023/07/30 09:31:05;;;;;;;2.33;1.97;;;;;;;-143.84;59.77;45003.38;4991417;28;21123;-57
2023/07/30 09:33:33;;;;;;;2.00;1.73;;;;;;;-143.84;58.34;44982.41;4992954;28;20496;-57
2023/07/30 09:36:02;;;;;;;2.50;1.70;;;;;;;-143.84;59.84;44976.72;4992870;28;20453;-57
2023/07/30 09:38:30;;;;;;;4.53;1.60;;;;;;;-143.84;59.50;44978.63;4992488;28;20480;-57
2023/07/30 09:41:02;;;;;;;6.50;1.83;;;;;;;-143.84;60.08;44963.38;4992955;28;20495;-57
2023/07/30 09:43:31;;;;;;;1.60;1.33;;;;;;;-143.84;61.14;44957.66;4992636;28;20455;-57
2023/07/30 09:46:03;;;;;;;1.63;1.53;;;;;;;-143.84;61.98;44984.31;4992923;28;20914;-57
2023/07/30 09:48:32;;;;;;;1.70;1.60;;;;;;;-143.84;60.34;44991.94;4992653;28;20449;-57
2023/07/30 09:51:02;;;;;;;2.03;1.60;;;;;;;-143.84;59.67;44993.84;4992859;28;20832;-57
2023/07/30 09:53:34;;;;;;;1.63;1.53;;;;;;;-143.84;60.44;44972.91;4992713;28;20538;-57
2023/07/30 09:56:02;;;;;;;2.27;1.77;;;;;;;-143.84;59.12;44986.22;4992394;28;20446;-57
2023/07/30 09:58:29;;;;;;;1.80;1.70;;;;;;;-143.84;58.63;44961.47;4992426;28;20492;-57
2023/07/30 10:00:59;;;;;;;1.50;1.40;;;;;;;-143.84;59.82;44953.88;4992239;28;20447;-57
2023/07/30 10:03:27;;;;;;;3.93;1.83;;;;;;;-143.84;60.71;44986.22;4992181;28;20437;-57
2023/07/30 10:05:59;;;;;;;1.83;1.57;;;;;;;-143.84;63.60;44991.94;4992255;28;20501;-57
2023/07/30 10:08:30;;;;;;;2.47;2.07;;;;;;;-143.84;58.84;44972.91;4992221;28;20452;-57
2023/07/30 10:10:57;;;;;;;1.73;1.50;;;;;;;-143.84;60.64;44976.72;4991504;28;20446;-57
2023/07/30 10:13:25;;;;;;;1.87;1.77;;;;;;;-143.84;61.59;44984.31;4991511;28;20499;-57
2023/07/30 10:15:52;;;;;;;1.80;1.70;;;;;;;-143.84;61.89;44974.81;4991524;28;20866;-57
2023/07/30 10:18:21;;;;;;;3.00;1.77;;;;;;;-143.84;62.77;44976.72;4992188;28;20914;-57
2023/07/30 10:20:56;;;;;;;2.23;2.00;;;;;;;-143.84;62.71;44980.53;4992102;28;20543;-57
2023/07/30 10:23:33;;;;;;;7.43;1.47;;;;;;;-143.84;62.06;44982.41;4992048;28;20554;-57
2023/07/30 10:26:09;;;;;;;1.87;1.40;;;;;;;-143.84;61.84;44984.31;4991970;28;20502;-57
2023/07/30 10:28:38;;;;;;;4.13;1.90;;;;;;;-143.84;63.23;44972.91;4991736;28;20568;-49
2023/07/30 10:31:09;;;;;;;1.50;1.40;;;;;;;-143.84;61.49;45012.88;4991675;28;20438;-48
2023/07/30 10:33:47;;;;;;;2.33;1.50;;;;;;;-143.84;61.32;45001.47;4991453;28;20445;-48
2023/07/30 10:36:14;;;;;;;2.10;1.27;;;;;;;-143.84;65.09;45005.28;4991610;28;20520;-49
2023/07/30 10:38:43;;;;;;;9.30;1.77;;;;;;;-143.84;65.31;45003.38;4991722;28;20487;-48
2023/07/30 10:41:13;;;;;;;2.03;1.60;;;;;;;-143.84;62.88;44997.66;4991202;28;20458;-50
2023/07/30 10:43:42;;;;;;;8.00;1.70;;;;;;;-143.84;62.90;45007.19;4991163;28;20507;-48
2023/07/30 10:46:11;;;;;;;1.50;1.30;;;;;;;-143.84;63.18;45014.78;4991154;28;20446;-48
2023/07/30 10:48:40;;;;;;;1.70;1.40;;;;;;;-143.84;61.91;45010.97;4991171;28;20441;-48
2023/07/30 10:51:08;;;;;;;1.80;1.57;;;;;;;-143.84;61.63;45001.47;4990955;28;20507;-48
2023/07/30 10:53:36;;;;;;;1.57;1.47;;;;;;;-143.84;63.45;44990.03;4991175;28;20509;-49
2023/07/30 10:56:06;;;;;;;2.43;1.60;;;;;;;-143.84;61.94;44988.13;4991104;28;20441;-48
2023/07/30 10:58:34;;;;;;;2.23;1.50;;;;;;;-143.84;63.72;44978.63;4990913;28;21076;-48
2023/07/30 11:01:03;;;;;;;5.40;1.70;;;;;;;-143.84;63.90;45018.59;4991120;28;20448;-53
2023/07/30 11:03:31;;;;;;;2.03;1.50;;;;;;;-143.84;61.60;45007.19;4990677;28;20447;-54
2023/07/30 11:05:59;;;;;;;2.47;1.43;;;;;;;-143.84;61.26;45014.78;4990628;28;20489;-54
2023/07/30 11:08:34;;;;;;;1.40;1.20;;;;;;;-143.84;61.47;44993.84;4990615;28;20497;-54
2023/07/30 11:11:01;;;;;;;2.00;1.60;;;;;;;-143.84;63.23;45001.47;4990755;28;21383;-54
2023/07/30 11:13:30;;;;;;;1.40;1.30;;;;;;;-143.84;62.57;45026.22;4990787;28;20441;-54
2023/07/30 11:15:57;;;;;;;3.67;1.90;;;;;;;-143.84;63.87;44984.31;4990757;28;20450;-54
2023/07/30 11:18:24;;;;;;;1.60;1.50;;;;;;;-143.84;66.90;45020.50;4990495;28;20586;-54
2023/07/30 11:20:53;;;;;;;2.17;1.70;;;;;;;-143.84;63.16;45005.28;4990330;28;20889;-54